createdAt,value
2022-09-06T00:01:17.279Z,1020.6
2022-09-06T00:06:49.629Z,1020.1
2022-09-06T00:12:46.965Z,1020.3
2022-09-06T00:18:19.665Z,1020.7
2022-09-06T00:23:55.474Z,1020.9
2022-09-06T00:29:17.720Z,1020.8
2022-09-06T00:34:48.256Z,1020.9
2022-09-06T00:40:22.104Z,1020.7
2022-09-06T00:46:08.990Z,1020.6
2022-09-06T00:51:50.089Z,1020.7
2022-09-06T00:57:24.352Z,1020.9
2022-09-06T01:02:56.179Z,1021.1
2022-09-06T01:08:28.086Z,1021.1
2022-09-06T01:13:48.384Z,1021
2022-09-06T01:19:19.879Z,1020.9
2022-09-06T01:25:19.173Z,1021.1
2022-09-06T01:30:30.957Z,1021.2
2022-09-06T01:36:25.757Z,1021.1
2022-09-06T01:41:54.860Z,1021.2
2022-09-06T01:47:27.706Z,1021.2
2022-09-06T01:52:52.583Z,1021.1
2022-09-06T01:58:32.815Z,1021.2
2022-09-06T02:04:02.240Z,1021.3
2022-09-06T02:09:56.299Z,1021.5
2022-09-06T02:15:05.023Z,1021.5
2022-09-06T02:20:44.965Z,1021.6
2022-09-06T02:26:20.457Z,1021.5
2022-09-06T02:32:04.545Z,1021.5
2022-09-06T02:37:36.853Z,1021.4
2022-09-06T02:43:06.025Z,1021.2
2022-09-06T02:48:45.597Z,1021.1
2022-09-06T02:54:32.721Z,1021
2022-09-06T03:00:03.774Z,1021.1
2022-09-06T03:05:40.005Z,1021.2
2022-09-06T03:11:13.483Z,1021.3
2022-09-06T03:16:32.242Z,1021.4
2022-09-06T03:22:19.679Z,1021.4
2022-09-06T03:27:35.209Z,1021.5
2022-09-06T03:33:29.337Z,1021.5
2022-09-06T03:39:02.307Z,1021.4
2022-09-06T03:44:20.910Z,1021.4
2022-09-06T03:50:12.971Z,1021.3
2022-09-06T03:55:31.070Z,1021.4
2022-09-06T04:01:12.974Z,1021.3
2022-09-06T04:06:50.141Z,1021.2
2022-09-06T04:12:23.321Z,1021.1
2022-09-06T04:17:57.262Z,1021.2
2022-09-06T04:23:31.132Z,1021.2
2022-09-06T04:28:57.914Z,1021.2
2022-09-06T04:34:31.420Z,1021.3
2022-09-06T04:39:56.520Z,1021.3
2022-09-06T04:45:48.226Z,1021.2
2022-09-06T06:03:48.319Z,1021.3
2022-09-06T06:09:28.072Z,1021.6
2022-09-06T06:20:41.437Z,1021.7
2022-09-06T16:48:52.513Z,1017.5
2022-09-06T17:00:10.969Z,1017.7
2022-09-06T17:05:55.171Z,1017.6
2022-09-06T17:11:26.277Z,1017.6
2022-09-06T17:16:52.090Z,1017.7
2022-09-06T17:22:36.695Z,1017.7
2022-09-06T17:28:21.901Z,1018.1
2022-09-06T17:33:37.744Z,1018.1
2022-09-06T17:39:33.858Z,1017.9
2022-09-06T17:44:48.233Z,1017.8
2022-09-06T17:50:25.415Z,1017.9
2022-09-06T17:56:01.396Z,1017.7
2022-09-06T18:01:39.902Z,1017.8
2022-09-06T18:07:06.427Z,1017.8
2022-09-06T18:12:46.988Z,1017.7
2022-09-06T18:18:29.177Z,1017.5
2022-09-06T18:23:53.287Z,1017.6
2022-09-06T18:29:47.473Z,1017.8
2022-09-06T18:35:10.436Z,1018
2022-09-06T18:40:36.911Z,1018.1
2022-09-06T18:46:36.712Z,1018
2022-09-06T18:52:03.122Z,1018.1
2022-09-06T18:57:24.357Z,1018.1
2022-09-06T19:03:25.520Z,1018
2022-09-06T19:08:38.222Z,1018.3
2022-09-06T19:14:31.146Z,1018.1
2022-09-06T19:20:03.411Z,1017.9
2022-09-06T19:25:31.719Z,1018.1
2022-09-06T19:31:20.707Z,1018.4
2022-09-06T19:36:45.396Z,1018.7
2022-09-06T19:42:23.886Z,1019
2022-09-06T19:47:43.253Z,1019
2022-09-06T19:53:40.340Z,1019
2022-09-06T19:58:52.582Z,1019
2022-09-06T20:04:49.104Z,1019.2
2022-09-06T20:10:08.416Z,1019.3
2022-09-06T20:21:06.203Z,1019.2
2022-09-06T20:26:49.498Z,1019.3
2022-09-06T20:32:25.239Z,1019.4
2022-09-06T20:38:11.859Z,1019.6
2022-09-06T20:44:06.842Z,1019.4
2022-09-06T20:49:05.255Z,1019.3
2022-09-06T20:54:55.768Z,1019.3
2022-09-06T21:00:18.679Z,1019.3
2022-09-06T21:06:11.638Z,1019.2
2022-09-06T21:11:36.531Z,1019.4
2022-09-06T21:17:03.180Z,1019.4
2022-09-06T21:22:48.187Z,1019.3
2022-09-06T21:28:05.431Z,1019.4
2022-09-06T21:33:55.585Z,1019.3
2022-09-06T21:39:23.510Z,1019.3
2022-09-06T21:44:46.108Z,1019.2
2022-09-06T21:50:21.684Z,1019.1
2022-09-06T21:55:54.902Z,1019.1
2022-09-06T22:01:30.100Z,1019.2
2022-09-06T22:07:19.594Z,1019.3
2022-09-06T22:12:56.178Z,1019.2
2022-09-06T22:18:29.972Z,1019.1
2022-09-06T22:23:57.048Z,1019.2
2022-09-06T22:29:36.183Z,1019.3
2022-09-06T22:35:01.338Z,1019.1
2022-09-06T22:40:41.584Z,1019.3
2022-09-06T22:46:24.240Z,1019.3
2022-09-06T22:51:51.553Z,1019.4
2022-09-06T22:57:11.489Z,1019.5
2022-09-06T23:02:54.077Z,1019.6
2022-09-06T23:08:31.399Z,1019.6
2022-09-06T23:14:11.392Z,1019.7
2022-09-06T23:19:26.597Z,1019.6
2022-09-06T23:25:12.774Z,1019.6
2022-09-06T23:30:39.714Z,1019.5
2022-09-06T23:36:27.126Z,1019.3
2022-09-06T23:41:54.876Z,1019.4
2022-09-06T23:47:27.246Z,1019.5
2022-09-06T23:53:15.711Z,1019.4
2022-09-06T23:58:45.314Z,1019.4
